Aviation Digital Data Service (ADDS)

Output produced by METARs form (0859 UTC 19 November 2018)
found at http://www.aviationweather.gov/metar/data/
 
RJSA 190800Z 30007KT 270V340 9999 -SHRA FEW010 SCT015 BKN020 06/04 Q1014
TAF RJSA 190505Z 1906/2012 24005KT 9999 FEW010 SCT020 BKN030 
     TEMPO 1906/1907 4000 SHRA BR FEW005 BKN008 BKN020